Time;durP1;ratioP1;P1;durP2;ratioP2;P2;SDS_P1;SDS_P2;PMS_P1;PMS_P2;Temp;Humidity;BMP_temperature;BMP_pressure;BME280_temperature;BME280_humidity;BME280_pressure;Samples;Min_cycle;Max_cycle;Signal;HPM_P1;HPM_P2
2022/12/11 00:01:23;;;;;;;25.13;16.23;;;;;;;10.55;63.04;99001.59;5010895;28;20399;-80
2022/12/11 00:03:49;;;;;;;23.10;15.30;;;;;;;10.55;63.00;98991.81;5028940;28;20412;-80
2022/12/11 00:06:17;;;;;;;24.40;15.13;;;;;;;10.56;63.28;98985.50;5011193;28;20474;-80
2022/12/11 00:08:43;;;;;;;23.65;14.40;;;;;;;10.52;63.04;98985.13;5031902;28;20788;-79
2022/12/11 00:11:14;;;;;;;21.33;13.45;;;;;;;10.54;63.28;98986.75;5023596;28;20379;-79
2022/12/11 00:13:40;;;;;;;23.52;13.95;;;;;;;10.60;63.16;99005.25;5032977;28;20383;-78
2022/12/11 00:16:06;;;;;;;24.65;15.02;;;;;;;10.54;62.97;98994.69;5034240;28;20409;-78
2022/12/11 00:18:31;;;;;;;22.42;14.30;;;;;;;10.46;63.60;98991.28;5020791;28;20443;-78
2022/12/11 00:21:01;;;;;;;24.23;14.57;;;;;;;10.43;63.82;98989.03;5026922;28;20446;-80
2022/12/11 00:23:27;;;;;;;22.95;13.48;;;;;;;10.49;63.48;98985.53;5015200;28;20450;-81
2022/12/11 00:25:53;;;;;;;19.42;12.55;;;;;;;10.51;63.38;98983.50;5015997;28;20379;-81
2022/12/11 00:28:19;;;;;;;18.38;12.00;;;;;;;10.53;63.59;98975.31;5015665;28;20538;-81
2022/12/11 00:30:45;;;;;;;17.40;12.07;;;;;;;10.52;63.38;98974.50;5030314;28;20413;-81
2022/12/11 00:33:11;;;;;;;18.45;11.80;;;;;;;10.54;63.42;98965.56;5028103;28;20383;-79
2022/12/11 00:35:38;;;;;;;19.45;12.48;;;;;;;10.47;63.23;98952.34;5017603;28;20860;-79
2022/12/11 00:38:04;;;;;;;22.42;14.73;;;;;;;10.43;63.26;98949.31;5030534;28;20384;-78
2022/12/11 00:40:35;;;;;;;21.30;14.60;;;;;;;10.51;63.26;98942.94;5026479;28;20410;-78
2022/12/11 00:43:01;;;;;;;22.95;13.60;;;;;;;10.33;63.55;98939.19;5017362;28;20376;-78
2022/12/11 00:45:26;;;;;;;22.77;15.27;;;;;;;10.40;63.89;98940.97;5014183;28;20386;-77
2022/12/11 00:47:52;;;;;;;21.43;13.67;;;;;;;10.43;63.42;98925.47;5015869;28;20407;-77
2022/12/11 00:50:17;;;;;;;18.90;12.80;;;;;;;10.47;63.91;98925.84;5026279;28;20434;-78
2022/12/11 00:52:43;;;;;;;20.85;12.75;;;;;;;10.55;63.33;98920.28;5014069;28;20450;-78
2022/12/11 00:55:10;;;;;;;21.05;13.48;;;;;;;10.49;63.42;98937.03;5026530;28;21223;-77
2022/12/11 00:57:36;;;;;;;21.05;12.45;;;;;;;10.45;63.45;98928.69;5025319;28;20382;-78
2022/12/11 01:00:05;;;;;;;20.87;13.17;;;;;;;10.39;63.93;98926.09;5014376;28;20880;-77
2022/12/11 01:02:32;;;;;;;19.23;12.27;;;;;;;10.38;63.98;98911.22;5013356;28;20938;-77
2022/12/11 01:04:57;;;;;;;19.52;12.15;;;;;;;10.34;63.80;98918.78;5015366;28;20907;-77
2022/12/11 01:07:23;;;;;;;19.10;11.57;;;;;;;10.37;64.15;98914.91;5024993;28;20392;-78
2022/12/11 01:12:33;;;;;;;16.73;11.52;;;;;;;10.17;64.38;98909.69;5021757;28;20386;-77
2022/12/11 01:14:58;;;;;;;16.77;11.93;;;;;;;10.16;64.47;98905.44;5020243;28;20396;-77
2022/12/11 01:17:24;;;;;;;17.13;11.77;;;;;;;10.32;64.21;98903.09;5015231;28;20399;-78
2022/12/11 01:19:52;;;;;;;19.03;12.30;;;;;;;10.38;64.30;98896.16;5014643;28;20384;-77
2022/12/11 01:22:17;;;;;;;16.58;11.73;;;;;;;10.41;63.96;98890.44;5015335;28;20396;-77
2022/12/11 01:24:43;;;;;;;18.93;12.27;;;;;;;10.39;64.03;98891.66;5001050;28;20394;-76
2022/12/11 01:27:08;;;;;;;18.67;13.32;;;;;;;10.30;64.43;98896.38;5011821;28;20380;-77
2022/12/11 01:29:34;;;;;;;17.03;11.00;;;;;;;10.12;65.13;98897.09;5012705;28;20395;-76
2022/12/11 01:31:59;;;;;;;18.30;11.10;;;;;;;10.07;64.96;98895.06;5012494;28;20832;-76
2022/12/11 01:34:28;;;;;;;18.58;11.50;;;;;;;10.13;64.94;98901.34;5011205;28;20392;-77
2022/12/11 01:36:53;;;;;;;14.35;10.77;;;;;;;10.16;65.01;98892.19;5022658;28;20382;-77
2022/12/11 01:39:19;;;;;;;17.30;10.03;;;;;;;10.03;65.24;98891.22;5017916;28;20381;-77
2022/12/11 01:41:44;;;;;;;20.85;11.85;;;;;;;9.90;65.93;98905.34;5013356;28;20404;-76
2022/12/11 01:44:13;;;;;;;12.27;9.10;;;;;;;9.92;65.72;98907.75;5025598;28;20389;-76
2022/12/11 01:46:39;;;;;;;14.48;9.48;;;;;;;9.94;65.94;98911.03;5011911;28;21540;-76
2022/12/11 01:49:11;;;;;;;11.10;8.80;;;;;;;9.96;66.01;98908.97;5012303;28;20534;-76
2022/12/11 01:51:44;;;;;;;10.90;8.38;;;;;;;10.01;65.73;98921.56;5011663;28;20382;-76
2022/12/11 01:54:12;;;;;;;12.13;8.63;;;;;;;10.01;66.18;98901.22;5012394;28;20446;-77
2022/12/11 01:56:40;;;;;;;11.77;9.10;;;;;;;9.96;66.27;98906.31;5011193;28;20478;-77
2022/12/11 01:59:08;;;;;;;13.80;10.00;;;;;;;9.99;66.42;98902.44;5012989;28;20380;-78
2022/12/11 02:01:43;;;;;;;12.77;9.20;;;;;;;10.05;66.28;98909.56;5015023;28;20502;-79
2022/12/11 02:04:10;;;;;;;12.05;8.75;;;;;;;10.17;66.54;98918.44;5016847;28;20428;-79
2022/12/11 02:06:38;;;;;;;12.40;8.55;;;;;;;10.32;65.18;98919.00;5012706;28;20863;-79
2022/12/11 02:09:07;;;;;;;11.43;8.68;;;;;;;10.28;65.67;98903.69;5011913;28;20480;-79
2022/12/11 02:11:51;;;;;;;11.82;8.68;;;;;;;10.13;65.80;98896.06;5014445;28;20383;-78
2022/12/11 02:14:35;;;;;;;12.13;8.45;;;;;;;10.02;66.43;98909.97;5012141;28;20395;-78
2022/12/11 02:17:10;;;;;;;15.68;11.68;;;;;;;9.92;66.91;98900.63;5015228;28;20420;-77
2022/12/11 02:19:55;;;;;;;13.68;9.95;;;;;;;9.99;66.85;98895.28;5014211;28;20475;-78
2022/12/11 02:23:06;;;;;;;15.02;10.20;;;;;;;10.11;66.89;98875.06;5009787;28;20487;-77
2022/12/11 02:25:53;;;;;;;15.68;10.68;;;;;;;10.29;66.10;98908.00;5001776;28;20832;-77
2022/12/11 02:28:30;;;;;;;17.00;11.23;;;;;;;10.35;66.48;98879.88;5009125;28;20373;-77
2022/12/11 02:31:19;;;;;;;17.17;12.13;;;;;;;10.48;65.91;98863.91;5000763;28;20376;-77
2022/12/11 02:33:51;;;;;;;18.25;12.25;;;;;;;10.39;65.65;98860.69;5013213;28;20399;-77
2022/12/11 02:36:20;;;;;;;16.27;11.40;;;;;;;10.32;66.12;98860.75;5012602;28;20384;-77
2022/12/11 02:38:50;;;;;;;19.13;16.35;;;;;;;10.41;66.04;98874.53;5011616;28;20388;-78
2022/12/11 02:41:18;;;;;;;15.95;10.82;;;;;;;10.52;65.67;98905.63;5006691;28;20452;-78
2022/12/11 02:43:46;;;;;;;17.33;11.77;;;;;;;10.42;65.73;98873.50;5005791;28;20418;-78
2022/12/11 02:46:14;;;;;;;15.70;10.98;;;;;;;10.41;65.90;98874.53;5017191;28;20857;-78
2022/12/11 02:48:41;;;;;;;18.45;16.45;;;;;;;10.43;65.98;98883.06;5018995;28;20390;-78
2022/12/11 02:51:09;;;;;;;16.27;10.40;;;;;;;10.52;65.45;98900.34;5011832;28;20434;-78
2022/12/11 02:53:37;;;;;;;16.77;11.85;;;;;;;10.57;65.51;98901.53;5012137;28;20860;-78
2022/12/11 02:56:12;;;;;;;17.33;11.32;;;;;;;10.50;65.85;98880.38;5012640;28;20381;-78
2022/12/11 02:58:45;;;;;;;20.52;11.88;;;;;;;10.54;65.80;98881.56;5008215;28;20401;-78
2022/12/11 03:01:11;;;;;;;18.30;11.85;;;;;;;10.59;65.56;98889.69;5010449;28;20407;-78
2022/12/11 03:03:36;;;;;;;18.25;10.88;;;;;;;10.67;65.21;98894.72;5012705;28;20384;-78
2022/12/11 03:06:02;;;;;;;16.33;11.70;;;;;;;10.60;65.56;98886.00;5012164;28;20886;-78
2022/12/11 03:08:28;;;;;;;16.42;11.98;;;;;;;10.45;65.55;98881.03;5011958;28;20388;-78
2022/12/11 03:10:54;;;;;;;17.17;11.50;;;;;;;10.52;65.73;98892.38;5011712;28;20392;-77
2022/12/11 03:13:21;;;;;;;54.53;49.53;;;;;;;10.70;65.61;98898.78;5011604;28;20392;-78
2022/12/11 03:15:47;;;;;;;41.83;37.70;;;;;;;10.88;65.23;98898.03;5011678;28;20392;-78
2022/12/11 03:18:26;;;;;;;22.10;19.70;;;;;;;11.04;64.37;98886.09;5011321;28;20391;-77
2022/12/11 03:21:17;;;;;;;18.92;13.27;;;;;;;10.97;64.60;98880.03;5011631;28;20415;-77
2022/12/11 03:24:21;;;;;;;38.10;26.42;;;;;;;10.73;64.98;98900.19;5011575;28;20741;-77
2022/12/11 03:26:55;;;;;;;23.00;16.07;;;;;;;10.65;65.24;98928.56;5019111;28;20423;-77
2022/12/11 03:29:25;;;;;;;17.02;12.63;;;;;;;10.33;65.98;98957.72;5011476;28;20424;-77
2022/12/11 03:31:55;;;;;;;19.30;13.10;;;;;;;10.21;66.88;98962.03;5028250;28;20397;-77
2022/12/11 03:34:32;;;;;;;17.95;12.48;;;;;;;10.16;67.30;98969.78;5030127;28;20481;-77
2022/12/11 03:36:59;;;;;;;19.20;13.50;;;;;;;10.20;66.90;98978.91;5013909;28;20395;-77
2022/12/11 03:39:32;;;;;;;21.33;12.77;;;;;;;10.09;67.28;98972.44;5009702;28;20928;-76
2022/12/11 03:42:01;;;;;;;15.95;10.95;;;;;;;9.91;68.22;98959.06;5012773;28;20500;-77
2022/12/11 03:44:30;;;;;;;15.07;10.70;;;;;;;9.89;68.26;98955.81;5030404;28;20378;-77
2022/12/11 03:46:58;;;;;;;13.88;9.80;;;;;;;10.00;67.82;98955.16;5016130;28;20404;-76
2022/12/11 03:49:29;;;;;;;12.10;8.75;;;;;;;10.01;67.83;98958.63;5022923;28;20466;-77
2022/12/11 03:51:58;;;;;;;15.55;10.93;;;;;;;10.09;67.66;98959.19;5010561;28;20837;-77
2022/12/11 03:54:25;;;;;;;14.30;10.07;;;;;;;10.25;67.25;98957.91;5010857;28;20492;-77
2022/12/11 03:56:54;;;;;;;13.97;9.13;;;;;;;10.26;67.54;98964.00;5010227;28;20725;-77
2022/12/11 03:59:20;;;;;;;12.85;9.55;;;;;;;10.44;66.95;98966.00;5010694;28;20462;-77
2022/12/11 04:01:46;;;;;;;12.88;8.98;;;;;;;10.60;66.00;98954.09;5021593;28;20421;-77
2022/12/11 04:04:11;;;;;;;15.60;10.53;;;;;;;10.61;66.03;98945.94;5016564;28;20408;-77
2022/12/11 04:06:36;;;;;;;13.37;10.67;;;;;;;10.69;65.98;98937.72;5021354;28;20450;-77
2022/12/11 04:09:02;;;;;;;14.63;10.55;;;;;;;10.65;65.55;98946.31;5011474;28;20759;-77
2022/12/11 04:11:33;;;;;;;14.47;10.43;;;;;;;10.58;65.81;98956.94;5034287;28;20409;-77
2022/12/11 04:24:13;;;;;;;18.48;12.65;;;;;;;10.36;66.32;98982.16;4966758;28;20411;-77
2022/12/11 04:25:28;;;;;;;10.82;8.48;;;;;;;10.04;67.71;98969.59;5001504;28;20503;-77
2022/12/11 04:27:54;;;;;;;10.20;8.30;;;;;;;9.83;68.35;98960.13;5014245;28;20407;-77
2022/12/11 04:30:24;;;;;;;11.63;9.10;;;;;;;10.03;67.77;98973.28;5014009;28;20384;-77
2022/12/11 04:32:51;;;;;;;12.23;10.02;;;;;;;10.17;67.20;98965.28;5014213;28;20471;-77
2022/12/11 04:35:16;;;;;;;11.70;9.80;;;;;;;10.10;67.37;98955.53;5013932;28;20395;-77
2022/12/11 04:37:42;;;;;;;10.43;8.50;;;;;;;10.03;67.53;98957.41;5013836;28;20479;-77
2022/12/11 04:40:11;;;;;;;10.23;8.37;;;;;;;9.97;67.62;98955.56;5013912;28;20394;-76
2022/12/11 04:42:37;;;;;;;10.97;8.03;;;;;;;9.72;68.74;98958.94;5014044;28;20400;-77
2022/12/11 04:45:03;;;;;;;10.77;8.60;;;;;;;9.82;68.77;98966.44;5013960;28;20384;-77
2022/12/11 04:47:29;;;;;;;10.18;8.30;;;;;;;10.00;67.87;98972.91;5013578;28;20422;-77
2022/12/11 04:49:55;;;;;;;8.83;7.00;;;;;;;9.84;68.49;98971.50;5013791;28;20724;-77
2022/12/11 04:52:20;;;;;;;9.52;7.22;;;;;;;9.83;68.89;98975.16;5008978;28;20378;-77
2022/12/11 04:54:46;;;;;;;9.27;7.73;;;;;;;9.85;69.00;98989.00;5003950;28;20382;-76
2022/12/11 04:57:11;;;;;;;10.10;8.30;;;;;;;9.94;68.47;98978.00;5013568;28;20422;-76
2022/12/11 04:59:37;;;;;;;11.13;7.50;;;;;;;9.87;68.46;98981.69;5013676;28;20392;-77
2022/12/11 05:02:03;;;;;;;10.57;8.05;;;;;;;10.04;68.49;99003.22;5013629;28;20439;-77
2022/12/11 05:04:33;;;;;;;8.13;6.70;;;;;;;10.02;68.41;99021.94;5013724;28;20384;-77
2022/12/11 05:07:00;;;;;;;9.20;7.32;;;;;;;10.27;67.75;99037.97;5012011;28;20472;-77
2022/12/11 05:09:26;;;;;;;10.25;7.55;;;;;;;10.40;66.96;99047.72;5013339;28;20422;-77
2022/12/11 05:11:52;;;;;;;7.88;6.15;;;;;;;10.18;67.52;99047.16;5011993;28;20408;-77
2022/12/11 05:14:17;;;;;;;7.90;6.40;;;;;;;10.17;67.57;99050.00;5013182;28;20388;-77
2022/12/11 05:16:43;;;;;;;7.27;6.10;;;;;;;10.22;67.30;99068.75;5014774;28;20467;-77
2022/12/11 05:19:08;;;;;;;5.28;4.32;;;;;;;10.18;67.51;99065.69;5014099;28;20745;-77
2022/12/11 05:21:34;;;;;;;6.10;5.20;;;;;;;10.17;67.11;99072.00;5012671;28;20407;-78
2022/12/11 05:23:59;;;;;;;4.57;3.80;;;;;;;10.06;67.23;99068.16;5013242;28;20702;-77
2022/12/11 05:26:25;;;;;;;5.22;4.70;;;;;;;10.36;66.81;99074.84;5012833;28;20376;-77
2022/12/11 05:28:53;;;;;;;6.13;4.60;;;;;;;10.44;65.68;99071.97;5013172;28;20371;-77
2022/12/11 05:31:25;;;;;;;3.92;3.22;;;;;;;10.04;66.20;99064.91;5008664;28;20369;-77
2022/12/11 05:33:51;;;;;;;2.63;2.13;;;;;;;9.97;65.52;99050.88;5012310;28;20432;-77
2022/12/11 05:36:23;;;;;;;2.05;1.75;;;;;;;9.97;65.39;99058.00;5012529;28;20419;-77
2022/12/11 05:38:49;;;;;;;1.50;1.13;;;;;;;9.76;65.18;99081.06;5012609;28;20447;-77
2022/12/11 05:41:18;;;;;;;2.00;1.50;;;;;;;9.86;64.74;99080.63;5012836;28;20400;-77
2022/12/11 05:43:43;;;;;;;1.45;1.05;;;;;;;9.78;64.41;99081.66;5012905;28;20384;-77
2022/12/11 05:46:21;;;;;;;1.70;1.13;;;;;;;9.76;64.61;99089.00;5013871;28;20399;-77
2022/12/11 05:48:48;;;;;;;0.83;0.60;;;;;;;9.56;64.20;99113.59;5012713;28;20481;-77
2022/12/11 05:51:15;;;;;;;1.15;0.95;;;;;;;9.54;63.94;99130.69;5011913;28;20388;-77
2022/12/11 05:53:42;;;;;;;1.73;1.27;;;;;;;9.76;63.76;99137.44;5012553;28;20377;-77
2022/12/11 05:56:12;;;;;;;1.63;0.93;;;;;;;9.43;63.94;99133.94;5012685;28;20376;-77
2022/12/11 05:58:38;;;;;;;3.00;1.60;;;;;;;9.47;63.57;99143.09;5012480;28;20387;-77
2022/12/11 06:01:12;;;;;;;2.10;1.10;;;;;;;9.26;63.97;99144.09;5012389;28;20753;-76
2022/12/11 06:03:38;;;;;;;2.15;1.08;;;;;;;9.40;63.77;99148.38;5013237;28;20892;-76
2022/12/11 06:06:05;;;;;;;2.78;1.20;;;;;;;9.43;63.81;99155.09;5012350;28;20380;-77
2022/12/11 06:08:31;;;;;;;2.38;1.80;;;;;;;9.67;62.60;99170.41;5013578;28;20872;-77
2022/12/11 06:10:57;;;;;;;3.25;2.50;;;;;;;9.68;62.75;99185.25;5012348;28;20372;-76
2022/12/11 06:13:23;;;;;;;2.72;1.70;;;;;;;9.41;62.75;99187.03;5013294;28;20376;-77
2022/12/11 06:15:48;;;;;;;3.05;1.70;;;;;;;9.46;62.89;99179.31;5013928;28;20384;-76
2022/12/11 06:18:14;;;;;;;2.63;1.87;;;;;;;9.40;62.75;99192.50;5013224;28;20466;-76
2022/12/11 06:20:40;;;;;;;3.10;1.50;;;;;;;9.31;63.01;99181.28;5003865;28;20410;-77
2022/12/11 06:23:05;;;;;;;1.97;1.23;;;;;;;9.13;62.95;99195.09;5007344;28;20399;-77
2022/12/11 06:25:31;;;;;;;1.70;1.50;;;;;;;8.91;63.18;99197.00;5012254;28;20477;-77
2022/12/11 06:27:57;;;;;;;3.03;1.93;;;;;;;8.87;63.31;99207.16;5012107;28;20387;-77
2022/12/11 06:30:22;;;;;;;3.57;1.60;;;;;;;8.85;63.55;99189.88;5011773;28;20391;-77
2022/12/11 06:32:48;;;;;;;2.00;1.17;;;;;;;8.93;62.40;99193.19;5011862;28;20377;-77
2022/12/11 06:35:13;;;;;;;2.80;1.27;;;;;;;8.82;62.83;99177.88;5012072;28;20384;-77
2022/12/11 06:37:39;;;;;;;2.40;1.20;;;;;;;8.77;62.85;99186.41;5011755;28;20386;-77
2022/12/11 06:40:07;;;;;;;1.80;1.13;;;;;;;8.76;63.10;99197.16;5011839;28;20376;-76
2022/12/11 06:42:33;;;;;;;2.60;1.50;;;;;;;8.85;62.84;99193.34;5028052;28;20507;-77
2022/12/11 06:44:58;;;;;;;2.43;1.60;;;;;;;8.91;62.27;99210.22;5013258;28;20426;-77
2022/12/11 06:47:31;;;;;;;2.20;1.60;;;;;;;8.87;61.99;99207.16;5012164;28;20443;-77
2022/12/11 06:49:56;;;;;;;5.68;3.67;;;;;;;9.06;62.04;99229.41;5011775;28;20391;-77
2022/12/11 06:52:23;;;;;;;3.42;2.67;;;;;;;9.30;61.05;99233.38;5010509;28;20376;-77
2022/12/11 06:54:49;;;;;;;1.83;1.40;;;;;;;9.13;60.60;99234.75;5011699;28;20379;-78
2022/12/11 06:57:15;;;;;;;3.60;1.83;;;;;;;8.99;61.09;99241.78;5009142;28;20401;-77
2022/12/11 06:59:41;;;;;;;3.42;1.45;;;;;;;8.87;60.62;99246.00;5015929;28;20740;-77
2022/12/11 07:02:12;;;;;;;3.10;1.80;;;;;;;9.07;60.58;99246.09;5026148;28;20921;-77
2022/12/11 07:04:37;;;;;;;6.53;3.55;;;;;;;9.02;59.78;99243.22;5025257;28;20375;-77
2022/12/11 07:07:03;;;;;;;3.03;2.10;;;;;;;8.78;60.65;99253.25;5012979;28;20770;-77
2022/12/11 07:09:28;;;;;;;1.50;1.30;;;;;;;8.73;60.72;99269.72;5009450;28;20459;-77
2022/12/11 07:11:54;;;;;;;2.80;1.30;;;;;;;8.59;60.94;99265.34;5023427;28;20482;-77
2022/12/11 07:14:19;;;;;;;2.35;1.40;;;;;;;8.65;60.68;99276.97;5026405;28;20407;-77
2022/12/11 07:16:45;;;;;;;3.43;1.80;;;;;;;8.73;60.84;99279.44;5018406;28;20835;-77
2022/12/11 07:19:10;;;;;;;1.37;1.00;;;;;;;8.50;60.86;99285.78;5025845;28;20451;-78
2022/12/11 07:21:36;;;;;;;2.85;1.60;;;;;;;8.53;61.52;99303.88;5022682;28;20416;-77
2022/12/11 07:24:02;;;;;;;2.83;2.03;;;;;;;8.54;61.12;99310.00;5022228;28;20424;-77
2022/12/11 07:26:28;;;;;;;3.22;1.45;;;;;;;8.55;60.65;99306.31;5022521;28;20497;-78
2022/12/11 07:28:57;;;;;;;3.55;2.20;;;;;;;8.65;60.79;99324.50;5020626;28;20410;-77
2022/12/11 07:31:24;;;;;;;3.17;2.28;;;;;;;8.64;61.22;99320.22;5025572;28;20439;-77
2022/12/11 07:34:01;;;;;;;5.22;3.00;;;;;;;8.78;60.50;99319.31;5026106;28;20473;-76
2022/12/11 07:36:28;;;;;;;4.70;2.47;;;;;;;8.67;60.30;99327.78;5022200;28;20421;-77
2022/12/11 07:38:54;;;;;;;3.55;2.35;;;;;;;8.72;59.96;99330.66;5022074;28;20386;-76
2022/12/11 07:41:21;;;;;;;3.90;2.30;;;;;;;8.88;60.07;99351.50;5024936;28;20949;-76
2022/12/11 07:43:46;;;;;;;2.50;1.58;;;;;;;8.93;59.31;99354.38;5024687;28;20442;-76
2022/12/11 07:46:17;;;;;;;0.87;0.60;;;;;;;8.39;60.35;99363.66;5026796;28;20962;-76
2022/12/11 07:48:45;;;;;;;1.77;1.30;;;;;;;8.68;60.39;99376.94;5027906;28;20386;-76
2022/12/11 07:51:14;;;;;;;1.30;0.90;;;;;;;8.84;59.77;99381.13;5030109;28;20379;-76
2022/12/11 07:53:42;;;;;;;1.60;1.10;;;;;;;8.60;60.94;99380.53;5030175;28;20469;-76
2022/12/11 07:56:07;;;;;;;1.23;1.00;;;;;;;8.68;59.71;99383.06;5027530;28;20459;-77
2022/12/11 07:58:33;;;;;;;2.93;1.40;;;;;;;8.40;60.05;99391.69;5031493;28;20389;-76
2022/12/11 08:00:59;;;;;;;1.50;1.20;;;;;;;8.64;60.07;99389.72;5026746;28;20455;-76
2022/12/11 08:03:25;;;;;;;2.50;1.48;;;;;;;8.89;58.97;99384.84;5030891;28;20886;-76
2022/12/11 08:05:52;;;;;;;2.03;1.33;;;;;;;9.05;58.18;99402.22;5028625;28;20448;-77
2022/12/11 08:08:18;;;;;;;2.15;1.13;;;;;;;8.99;57.92;99405.66;5027892;28;20370;-77
2022/12/11 08:10:44;;;;;;;2.05;1.15;;;;;;;9.03;57.93;99400.81;5021693;28;20398;-77
2022/12/11 08:13:10;;;;;;;1.80;1.50;;;;;;;9.04;58.00;99400.63;5029735;28;20708;-77
2022/12/11 08:15:36;;;;;;;1.60;1.00;;;;;;;8.46;58.76;99406.00;5014121;28;20376;-78
2022/12/11 08:18:01;;;;;;;1.50;1.10;;;;;;;8.58;58.19;99417.69;5012364;28;20709;-76
2022/12/11 08:20:27;;;;;;;2.00;1.23;;;;;;;8.68;57.96;99406.84;5019249;28;20389;-77
2022/12/11 08:22:52;;;;;;;2.20;1.15;;;;;;;8.59;58.57;99403.50;5022469;28;20403;-78
2022/12/11 08:25:18;;;;;;;2.37;1.60;;;;;;;8.53;58.82;99411.34;5024980;28;20410;-78
2022/12/11 08:27:43;;;;;;;2.07;1.67;;;;;;;8.94;58.43;99418.63;5029784;28;20381;-78
2022/12/11 08:30:10;;;;;;;2.30;1.70;;;;;;;8.71;58.40;99411.72;5010970;28;20457;-77
2022/12/11 08:32:35;;;;;;;18.40;11.77;;;;;;;8.72;58.40;99431.06;5015903;28;20374;-77
2022/12/11 08:35:01;;;;;;;3.20;2.40;;;;;;;8.49;58.70;99424.13;5011773;28;20391;-77
2022/12/11 08:37:26;;;;;;;3.53;2.00;;;;;;;8.77;58.72;99450.59;5019089;28;20464;-76
2022/12/11 08:39:52;;;;;;;2.00;1.50;;;;;;;9.03;57.45;99458.97;5018640;28;20427;-77
2022/12/11 08:42:17;;;;;;;2.80;1.90;;;;;;;9.01;57.58;99460.97;5011485;28;20411;-76
2022/12/11 08:44:43;;;;;;;2.87;1.80;;;;;;;9.09;57.33;99458.19;5011147;28;20465;-76
2022/12/11 08:47:11;;;;;;;1.98;1.55;;;;;;;8.85;57.97;99469.97;5020956;28;20432;-76
2022/12/11 08:49:36;;;;;;;2.42;1.83;;;;;;;9.01;57.83;99475.00;5026700;28;20382;-78
2022/12/11 08:52:03;;;;;;;3.30;2.05;;;;;;;8.95;57.53;99473.13;5028875;28;20795;-77
2022/12/11 08:54:29;;;;;;;2.58;1.70;;;;;;;8.35;58.21;99461.91;5021464;28;20395;-77
2022/12/11 08:56:54;;;;;;;4.33;3.03;;;;;;;8.68;58.07;99459.66;5017902;28;20368;-77
2022/12/11 08:59:20;;;;;;;2.60;2.00;;;;;;;8.65;58.39;99456.59;5012564;28;20376;-76
2022/12/11 09:01:45;;;;;;;3.35;2.40;;;;;;;8.47;58.69;99457.81;5012253;28;20403;-75
2022/12/11 09:04:10;;;;;;;6.23;4.23;;;;;;;8.67;58.34;99458.03;5020094;28;20466;-77
2022/12/11 09:06:36;;;;;;;5.33;3.17;;;;;;;8.95;57.99;99462.56;5016153;28;20450;-77
2022/12/11 09:09:02;;;;;;;2.97;2.30;;;;;;;8.86;57.55;99464.50;5020050;28;20382;-77
2022/12/11 09:11:31;;;;;;;1.67;1.38;;;;;;;8.59;57.71;99469.53;5014810;28;20376;-77
2022/12/11 09:13:57;;;;;;;3.05;2.28;;;;;;;8.53;58.08;99475.56;5012857;28;20392;-77
2022/12/11 09:16:24;;;;;;;1.90;1.38;;;;;;;8.34;58.22;99474.31;5019474;28;20388;-77
2022/12/11 09:18:52;;;;;;;3.38;2.72;;;;;;;8.46;59.24;99474.66;5021354;28;20445;-77
2022/12/11 09:21:20;;;;;;;3.20;1.70;;;;;;;8.04;59.44;99469.06;5026647;28;20412;-76
2022/12/11 09:23:46;;;;;;;3.40;2.43;;;;;;;8.19;59.38;99474.34;5009003;28;20388;-76
2022/12/11 09:26:13;;;;;;;3.13;2.13;;;;;;;8.25;59.38;99475.44;5013534;28;20388;-76
2022/12/11 09:28:40;;;;;;;3.45;2.10;;;;;;;8.45;58.18;99466.94;5023458;28;20376;-77
2022/12/11 09:31:27;;;;;;;3.15;2.20;;;;;;;8.21;58.76;99497.91;5012189;28;20456;-76
2022/12/11 09:33:55;;;;;;;2.90;2.22;;;;;;;7.89;59.67;99492.03;5025419;28;20394;-76
2022/12/11 09:36:21;;;;;;;4.72;3.03;;;;;;;8.09;58.94;99491.47;5029702;28;20382;-77
2022/12/11 09:38:47;;;;;;;4.60;2.13;;;;;;;7.96;59.59;99506.13;5027526;28;20383;-76
2022/12/11 09:41:21;;;;;;;5.07;3.53;;;;;;;8.26;59.03;99495.53;5024222;28;20415;-77
2022/12/11 09:44:13;;;;;;;3.60;2.53;;;;;;;7.99;59.04;99497.84;5021698;28;20419;-77
2022/12/11 09:46:40;;;;;;;3.95;1.80;;;;;;;7.97;59.42;99494.56;5026870;28;20394;-76
2022/12/11 09:49:36;;;;;;;3.63;2.42;;;;;;;8.27;59.34;99488.44;5008688;28;20491;-77
2022/12/11 09:52:14;;;;;;;2.78;2.40;;;;;;;8.28;59.04;99488.25;5016534;28;20847;-76
2022/12/11 09:54:47;;;;;;;6.55;3.45;;;;;;;7.85;59.55;99496.84;5019742;28;20794;-76
2022/12/11 09:57:44;;;;;;;5.72;3.17;;;;;;;8.00;59.63;99490.75;5025204;28;20890;-77
2022/12/11 10:00:15;;;;;;;6.63;4.22;;;;;;;8.20;59.11;99488.38;5028266;28;20448;-77
2022/12/11 10:02:53;;;;;;;4.55;3.10;;;;;;;8.31;59.03;99506.34;5018754;28;20416;-77
2022/12/11 10:05:48;;;;;;;3.70;2.88;;;;;;;8.40;58.96;99507.06;5021895;28;20417;-76
2022/12/11 10:08:58;;;;;;;4.38;3.35;;;;;;;8.19;58.90;99498.09;5023515;28;20397;-76
2022/12/11 10:11:45;;;;;;;5.25;3.13;;;;;;;8.06;59.57;99507.66;4941873;28;20953;-77
2022/12/11 10:14:17;;;;;;;3.17;1.60;;;;;;;7.55;61.08;99518.94;5022621;28;20657;-76
2022/12/11 10:16:47;;;;;;;3.90;2.63;;;;;;;7.82;60.61;99520.94;5020947;28;20447;-77
2022/12/11 10:19:18;;;;;;;10.00;5.68;;;;;;;7.91;60.46;99508.50;5018303;28;20386;-76
2022/12/11 10:21:44;;;;;;;10.40;3.80;;;;;;;8.07;60.25;99507.50;5026505;28;20406;-76
2022/12/11 10:24:17;;;;;;;6.72;3.47;;;;;;;8.06;59.97;99518.22;5019207;28;20390;-77
2022/12/11 10:26:45;;;;;;;6.80;3.83;;;;;;;7.65;61.30;99508.94;5023613;28;20376;-76
2022/12/11 10:29:14;;;;;;;6.97;5.05;;;;;;;8.01;61.07;99498.50;5026805;28;20383;-77
2022/12/11 10:31:57;;;;;;;6.68;4.72;;;;;;;8.13;60.74;99500.66;5017538;28;20394;-77
2022/12/11 10:34:33;;;;;;;8.95;6.63;;;;;;;7.88;61.82;99500.94;5016464;28;20380;-77
2022/12/11 10:37:00;;;;;;;9.15;6.50;;;;;;;7.74;62.44;99501.75;5022614;28;20366;-77
2022/12/11 10:39:25;;;;;;;7.90;5.55;;;;;;;8.01;62.23;99497.66;5011226;28;20387;-77
2022/12/11 10:41:53;;;;;;;7.77;5.60;;;;;;;8.04;61.87;99495.47;5024855;28;20464;-77
2022/12/11 10:44:23;;;;;;;7.40;3.97;;;;;;;7.88;61.95;99495.66;5018095;28;21006;-76
2022/12/11 10:47:09;;;;;;;7.15;3.92;;;;;;;8.04;62.29;99490.19;5022110;28;20402;-76
2022/12/11 10:49:37;;;;;;;3.65;2.30;;;;;;;7.89;62.07;99488.59;5022682;28;20401;-77
2022/12/11 10:52:23;;;;;;;3.53;2.38;;;;;;;7.79;62.36;99497.56;5021351;28;20375;-76
2022/12/11 10:55:16;;;;;;;7.35;5.03;;;;;;;8.07;62.45;99504.00;5010856;28;20465;-77
2022/12/11 10:57:42;;;;;;;5.63;4.00;;;;;;;8.26;60.93;99492.88;5020355;28;20889;-77
2022/12/11 11:00:29;;;;;;;5.53;4.18;;;;;;;8.27;61.01;99499.00;5024174;28;20402;-76
2022/12/11 11:02:54;;;;;;;5.28;3.80;;;;;;;8.25;61.20;99496.56;4999580;28;20446;-77
2022/12/11 11:05:35;;;;;;;4.57;3.20;;;;;;;8.29;60.56;99489.06;5017798;28;20548;-76
2022/12/11 11:08:03;;;;;;;12.00;7.30;;;;;;;8.51;60.56;99488.13;5016989;28;20972;-77
2022/12/11 11:10:29;;;;;;;3.60;2.75;;;;;;;8.51;60.54;99493.41;5009643;28;20376;-77
2022/12/11 11:13:00;;;;;;;6.88;4.05;;;;;;;8.71;60.47;99496.25;5010378;28;20729;-78
2022/12/11 11:15:28;;;;;;;3.92;2.90;;;;;;;8.78;60.15;99491.84;5010656;28;20480;-77
2022/12/11 11:17:56;;;;;;;9.85;3.80;;;;;;;8.83;59.78;99495.78;5005488;28;21106;-77
2022/12/11 11:20:26;;;;;;;7.47;4.15;;;;;;;8.66;59.73;99496.03;5009482;28;20537;-77
2022/12/11 11:22:55;;;;;;;11.77;7.55;;;;;;;8.89;59.46;99492.38;5011236;28;20400;-77
2022/12/11 11:25:26;;;;;;;7.40;3.38;;;;;;;8.93;59.42;99477.75;5011674;28;20702;-79
2022/12/11 11:27:55;;;;;;;19.50;10.70;;;;;;;9.01;58.90;99474.19;5010252;28;20419;-77
2022/12/11 11:30:22;;;;;;;13.35;7.45;;;;;;;9.03;58.01;99480.09;5010753;28;20384;-77
2022/12/11 11:33:01;;;;;;;16.95;8.95;;;;;;;9.16;58.41;99490.78;5012131;28;20408;-80
2022/12/11 11:35:28;;;;;;;9.90;6.30;;;;;;;9.22;58.36;99481.25;5010952;28;20384;-77
2022/12/11 11:38:08;;;;;;;9.93;6.40;;;;;;;9.33;58.08;99491.34;5010686;28;20449;-77
2022/12/11 11:40:41;;;;;;;8.32;5.30;;;;;;;9.37;57.14;99492.59;5009243;28;20377;-77
2022/12/11 11:43:12;;;;;;;13.38;9.32;;;;;;;9.46;56.19;99488.78;5008792;28;20384;-77
2022/12/11 11:45:55;;;;;;;5.90;4.65;;;;;;;9.36;53.88;99496.22;5008530;28;20384;-77
2022/12/11 11:48:29;;;;;;;11.32;6.30;;;;;;;9.42;54.72;99499.91;5011138;28;20839;-77
2022/12/11 11:50:56;;;;;;;4.03;2.60;;;;;;;9.34;54.21;99498.25;5010893;28;20384;-77
2022/12/11 11:53:40;;;;;;;34.75;22.98;;;;;;;9.32;53.86;99502.91;5010366;28;20376;-77